Aérodrome :
LOGIN :

S'inscrire | Disclaimer

   EN    FR    IT 

 










Légende :    VFR   VFR Marginal   IFR   IFR Intensif   IFR Très Intensif
Visi : 
Plafond : 
>= 8 km
>= 3000ft
5 à 8 km
1000 à 3000 ft
1500m à 5 km
500 à 1000 ft
800 à 1500m
200 à 500 ft
< 800m
< 200 ft
Symboles :   Orages  Brouillard  Fortes neiges  Fortes précipitations  Vent > 20 kt
SIGMETs :   Divers  Orages  Givrage  Turbulence  Onde Orograph.  Cendres Volcan.







- Altitude de l'aérodrome : 1910 ft
- Code IATA : RDZ
- Voir les cartes d'approche


LFCR - Rodez

DERNIER METAR :
  • 300300Z AUTO 12015KT CAVOK 08/04 Q1009 BECMG 14015G25KT

METARs EXPIRÉS :
  • 300230Z AUTO 13014KT CAVOK 08/04 Q1009 BECMG 14015G25KT
  • 300200Z AUTO 13014G24KT CAVOK 08/04 Q1009 NOSIG
  • 300130Z AUTO 13015KT CAVOK 08/04 Q1009 BECMG 14015G25KT
  • 300100Z AUTO 13016KT CAVOK 08/03 Q1009 BECMG 14015G25KT
  • 300030Z AUTO 13015KT CAVOK 08/02 Q1010 BECMG 14015G25KT

TAF TAF LFCR
Valide du 30 à 00h jusqu'au 01 à 00h UTC


292300Z 3000/3024 14015G25KT CAVOK
TEMPO 3010/3013 14025G35KT
BECMG 3011/3013 FEW035CB BKN060
TEMPO 3014/3019 28020G30KT 4000 SHRA
PROB40 3015/3018 VRB25G35KT 2000 TSRA
BECMG 3019/3021 VRB02KT BKN020
Pas de NOTAMs connus pour ce terrain.
4 SIGMETs publiés pour la FIR Bordeaux (LFBB) :
 
Orages noyés dans la masse
LFBB SIGMET 2 VALID 300300/300500 LFPW
LFBB BORDEAUX FIR/UIR EMBD TS OBS WI N4530 W00145 - N4630 W00130 - N4530 W00045 TOP FL280 MOV NE 20KT NC=
Turbulence forte
LFBB SIGMET 2 VALID 300000/300400 LFPW
LFBB BORDEAUX FIR/UIR SEV TURB FCST WI N4430 E00245 - N4315 E00230 - N4315 E00145 - N4415 E00215 SFC/FL060 STNR INTSF=
Onde orographique forte
LFBB SIGMET 1 VALID 300400/300800 LFPW
LFBB BORDEAUX FIR/UIR SEV MTW FCST S OF LINE N4245 E00230 - N4330 W00145 SFC/FL340 STNR INTSF=
Turbulence forte
LFBB SIGMET 1 VALID 300000/300400 LFPW
LFBB BORDEAUX FIR/UIR SEV TURB FCST S OF LINE N4245 E00230 - N4330 W00145 SFC/FL140 STNR INTSF=



MET'MAP, la Météo Aéronautique d'un coup d'oeil ! - Copyright ORBIFLY Décembre 2007 - Disclaimer

ORBIFLY MET'MAP TEAM :

Programmation & Développement : Alexandra Zaïnal
Conception & Développement : Baudouin d'Aumeries
Co-Programmation & Développement : Marc-Olivier Méhu
Soutien technique & logistique : Manuel Goepfert

Contact : metmap@orbifly.com




SOURCES & CREDITS :

   NOAA